Форум клана ЧПУшников

Информация о пользователе

Привет, Гость! Войдите или зарегистрируйтесь.


Вы здесь » Форум клана ЧПУшников » Лазерные станки


Лазерные станки

Тем 321 страница 400 из 500

Тема Ответов Просмотров Последнее сообщение
6 380 15-09-2016 16:41:34  Svetim
17 616 14-09-2016 17:39:16  coldhardpuma
22 523 10-09-2016 12:51:10  Ярослав Кузнецов
27 372 07-09-2016 15:12:46  Sergey AA
54 1299 05-09-2016 18:45:50  firestone
10 425 04-09-2016 14:04:34  AirPhoto
4 202 02-09-2016 22:34:42  uxtbl
1 315 26-08-2016 12:58:27  Orcansler
4 163 25-08-2016 16:48:13  *SvEtLaNKa*
7 481 19-08-2016 12:28:43  Юрий Анатольевич
14 1152 19-08-2016 09:59:24  cheeze
7 427 16-08-2016 14:15:08  Юрий Анатольевич
21 916 06-08-2016 12:42:16  vasa29
21 1055 29-07-2016 11:28:19  ЫХ-000
3 196 25-07-2016 12:13:13  Kuz
1 266 20-07-2016 16:00:47  Maxim Korolev
6 569 19-07-2016 20:00:25  YuSTas
2 115 18-07-2016 10:25:53  byshaeva
81 2475 17-07-2016 11:06:33  Сергей Кравчик
2 257 09-07-2016 14:27:04  Killa312
11 595 07-07-2016 15:18:42  Hotory
25 696 27-06-2016 21:44:32  Salon-max
38 2080 27-06-2016 05:30:23  Юрецкий
14 429 26-06-2016 11:49:07  Quark
48 1251 24-06-2016 20:06:01  Иван1985
9 634 24-06-2016 19:54:50  Иван1985
16 677 24-06-2016 15:25:23  Sergey AA
2 118 24-06-2016 12:14:53  messer1988
8 481 22-06-2016 15:04:25  Sergey AA
8 952 16-06-2016 22:36:09  megagad
204 18024 12-06-2016 11:02:33  Andrey55
4 237 06-06-2016 09:19:33  Zmeei
24 926 02-06-2016 16:29:32  Sofka
16 387 02-06-2016 09:43:13  ilcomp
3 149 31-05-2016 11:04:49  SmileCat
14 478 29-05-2016 10:38:37  Neudrums
19 947 28-05-2016 00:03:48  Sborka
19 240 25-05-2016 12:15:46  Mikky
8 409 24-05-2016 15:31:24  sonr
21 2374 23-05-2016 23:42:46  Avel
361 Волнистый рез  angrydemon
4 239 23-05-2016 17:44:30  YuSTas
2 124 05-05-2016 11:02:05  Kuz
7 435 04-05-2016 01:16:19  snowman
10 329 28-04-2016 20:21:01  Kirian
1 152 28-04-2016 19:58:34  Kirian
37 1131 28-04-2016 14:14:04  neotex
3 626 27-04-2016 20:39:04  andrey_e
6 288 27-04-2016 16:16:09  denisej
369 Reci s2  Neudrums
35 900 26-04-2016 21:17:31  Элинка
5 479 25-04-2016 16:52:18  MPN
15 1392 23-04-2016 22:53:06  Sokrat
9 536 23-04-2016 17:45:11  Tab
35 1064 23-04-2016 13:05:00  Valera5609
20 745 21-04-2016 12:48:47  Silmaril
18 1033 21-04-2016 12:07:58  f.laser
1 169 17-04-2016 23:10:04  megagad
377 Резка с углекислотой  Виктор Краски
23 746 17-04-2016 08:59:55  Flint2015
13 1865 15-04-2016 11:34:20  ImageLaser
11 297 11-04-2016 14:35:21  MaxMaster
13 383 09-04-2016 20:30:46  aldushin
5 277 06-04-2016 17:28:09  daguss
991 95236 29-03-2016 17:50:18  sva-don
383 Закрыта Резко упала мощность  Neudrums
10 339 24-03-2016 00:59:57  Neudrums
5 438 22-03-2016 20:12:39  Дилик
385 Прошу помощи.  Назар
5 320 16-03-2016 09:51:09  Назар
8 240 14-03-2016 16:51:53  Расулыч
7 429 10-03-2016 20:36:59  chirik
5 754 07-03-2016 20:32:32  Flint2015
19 1726 04-03-2016 17:27:39  Airside
4 197 29-02-2016 22:43:44  nikson
5 174 27-02-2016 08:50:26  Flint2015
392 Тестирование размера реза  Виктор Краски
9 475 26-02-2016 16:55:55  daguss
393 кривая резка  Восходник
17 490 26-02-2016 00:06:30  semerochka
80 6027 22-02-2016 20:51:36  Kinetic
17 960 22-02-2016 12:02:26  Kinetic
5 598 14-02-2016 15:24:59  gabber
7 424 14-02-2016 12:43:54  Zippo
12 379 12-02-2016 17:15:38  Yaroslavl
2 209 12-02-2016 10:23:44  Администратор
22 884 07-02-2016 15:27:40  Imobile

Вы здесь » Форум клана ЧПУшников » Лазерные станки